Time;durP1;ratioP1;P1;durP2;ratioP2;P2;SDS_P1;SDS_P2;PMS_P1;PMS_P2;Temp;Humidity;BMP_temperature;BMP_pressure;BME280_temperature;BME280_humidity;BME280_pressure;Samples;Min_cycle;Max_cycle;Signal;HPM_P1;HPM_P2
2023/09/10 00:01:04;;;;;;;9.67;8.93;;;16.00;99.90;;;;;;5001776;28;20456;-65
2023/09/10 00:03:32;;;;;;;7.90;7.30;;;16.00;99.90;;;;;;5005444;28;20487;-66
2023/09/10 00:05:59;;;;;;;8.40;7.63;;;16.00;99.90;;;;;;5005018;28;20448;-66
2023/09/10 00:08:28;;;;;;;9.57;8.77;;;15.90;99.90;;;;;;5009694;28;20457;-66
2023/09/10 00:10:55;;;;;;;9.43;8.67;;;15.90;99.90;;;;;;5001725;28;20489;-66
2023/09/10 00:13:22;;;;;;;8.67;7.97;;;15.80;99.90;;;;;;5001666;28;20471;-66
2023/09/10 00:15:49;;;;;;;10.03;9.17;;;15.80;99.90;;;;;;5001176;28;20459;-65
2023/09/10 00:18:16;;;;;;;9.00;8.20;;;15.80;99.90;;;;;;4997177;28;20644;-66
2023/09/10 00:20:43;;;;;;;8.77;7.83;;;15.80;99.90;;;;;;5013295;28;20528;-66
2023/09/10 00:23:09;;;;;;;9.57;8.67;;;15.80;99.90;;;;;;5008928;28;20552;-66
2023/09/10 00:25:38;;;;;;;9.70;8.67;;;15.70;99.90;;;;;;4993997;28;20495;-66
2023/09/10 00:28:05;;;;;;;8.37;7.67;;;15.70;99.90;;;;;;4993998;28;20815;-65
2023/09/10 00:30:32;;;;;;;8.97;8.20;;;15.70;99.90;;;;;;4993780;28;20579;-66
2023/09/10 00:32:59;;;;;;;8.23;7.63;;;15.70;99.90;;;;;;5008544;28;20560;-66
2023/09/10 00:35:25;;;;;;;8.93;8.03;;;15.70;99.90;;;;;;5013105;28;20939;-66
2023/09/10 00:37:52;;;;;;;8.60;7.70;;;15.70;99.90;;;;;;5013449;28;20451;-66
2023/09/10 00:40:19;;;;;;;8.97;8.27;;;15.60;99.90;;;;;;5013452;28;20440;-66
2023/09/10 00:42:47;;;;;;;8.87;8.17;;;15.60;99.90;;;;;;5013152;28;20475;-66
2023/09/10 00:45:14;;;;;;;8.40;7.70;;;15.60;99.90;;;;;;5013196;28;21000;-66
2023/09/10 00:47:44;;;;;;;9.50;8.70;;;15.60;99.90;;;;;;5013141;28;20459;-65
2023/09/10 00:50:11;;;;;;;8.67;7.77;;;15.60;99.90;;;;;;4996950;28;20529;-66
2023/09/10 00:52:42;;;;;;;9.30;8.40;;;15.60;99.90;;;;;;4993300;28;20556;-66
2023/09/10 00:55:09;;;;;;;9.50;8.70;;;15.50;99.90;;;;;;4993228;28;20455;-65
2023/09/10 00:57:37;;;;;;;9.10;8.30;;;15.50;99.90;;;;;;4993309;28;20479;-65
2023/09/10 01:00:09;;;;;;;9.60;7.97;;;15.50;99.90;;;;;;5021621;23;20502;-63
2023/09/10 01:02:36;;;;;;;9.33;8.43;;;15.50;99.90;;;;;;5013073;28;20451;-63
2023/09/10 01:05:04;;;;;;;13.10;7.80;;;15.40;99.90;;;;;;5012633;28;20447;-63
2023/09/10 01:07:31;;;;;;;9.33;8.53;;;15.40;99.90;;;;;;5013237;28;20527;-63
2023/09/10 01:09:58;;;;;;;8.90;8.10;;;15.40;99.90;;;;;;5013143;28;20487;-63
2023/09/10 01:12:33;;;;;;;9.60;8.80;;;15.40;99.90;;;;;;5013147;28;20487;-63
2023/09/10 01:15:06;;;;;;;10.40;9.60;;;15.40;99.90;;;;;;5012916;28;20446;-63
2023/09/10 01:17:39;;;;;;;10.30;9.40;;;15.40;99.90;;;;;;5012952;28;20544;-63
2023/09/10 01:20:52;;;;;;;9.93;9.03;;;15.40;99.90;;;;;;5012812;28;20852;-65
2023/09/10 01:23:25;;;;;;;8.57;7.77;;;15.40;99.90;;;;;;5012982;28;20526;-65
2023/09/10 01:25:53;;;;;;;10.77;9.87;;;15.30;99.90;;;;;;5012644;28;20539;-63
2023/09/10 01:28:21;;;;;;;12.20;11.13;;;15.30;99.90;;;;;;5012780;28;20555;-65
2023/09/10 01:30:48;;;;;;;8.90;8.10;;;15.30;99.90;;;;;;5012475;28;20506;-65
2023/09/10 01:33:22;;;;;;;8.70;8.00;;;15.30;99.90;;;;;;5012659;28;20489;-65
2023/09/10 01:35:54;;;;;;;8.53;7.83;;;15.20;99.90;;;;;;5012311;28;21015;-65
2023/09/10 01:38:27;;;;;;;9.60;8.83;;;15.20;99.90;;;;;;5012527;28;20534;-63
2023/09/10 01:41:01;;;;;;;9.57;8.00;;;15.20;99.90;;;;;;5012483;28;20469;-65
2023/09/10 01:43:29;;;;;;;9.50;8.80;;;15.10;99.90;;;;;;5012715;28;20879;-63
2023/09/10 01:45:55;;;;;;;9.87;9.13;;;15.10;99.90;;;;;;5028690;28;20450;-63
2023/09/10 01:48:22;;;;;;;9.60;8.70;;;15.10;99.90;;;;;;5032115;28;20453;-63
2023/09/10 01:50:49;;;;;;;9.63;8.83;;;15.10;99.90;;;;;;5032070;28;20581;-63
2023/09/10 01:53:16;;;;;;;9.30;8.40;;;15.10;99.90;;;;;;5032231;28;20456;-63
2023/09/10 01:55:44;;;;;;;10.27;8.40;;;15.00;99.90;;;;;;5031728;28;20458;-63
2023/09/10 01:58:13;;;;;;;9.73;9.00;;;15.00;99.90;;;;;;5031984;28;20537;-63
2023/09/10 02:00:39;;;;;;;9.90;8.90;;;15.00;99.90;;;;;;5031774;28;20895;-63
2023/09/10 02:03:06;;;;;;;9.40;8.67;;;15.00;99.90;;;;;;5031814;28;20976;-63
2023/09/10 02:05:33;;;;;;;9.13;8.43;;;15.00;99.90;;;;;;5031526;28;20445;-63
2023/09/10 02:08:00;;;;;;;9.30;8.57;;;15.00;99.90;;;;;;5031703;28;20537;-63
2023/09/10 02:10:28;;;;;;;10.03;9.23;;;14.90;99.90;;;;;;5031545;28;20504;-65
2023/09/10 02:12:55;;;;;;;10.17;9.13;;;14.90;99.90;;;;;;5031886;28;20534;-63
2023/09/10 02:15:23;;;;;;;10.63;9.83;;;14.90;99.90;;;;;;5031302;28;20455;-65
2023/09/10 02:17:50;;;;;;;9.20;8.50;;;14.90;99.90;;;;;;5031244;28;20450;-63
2023/09/10 02:20:17;;;;;;;9.50;8.70;;;14.90;99.90;;;;;;5031571;28;20848;-63
2023/09/10 02:22:43;;;;;;;12.33;8.87;;;14.80;99.90;;;;;;5031579;28;20450;-63
2023/09/10 02:25:10;;;;;;;10.87;10.07;;;14.80;99.90;;;;;;5031524;28;20932;-63
2023/09/10 02:27:37;;;;;;;9.20;8.30;;;14.80;99.90;;;;;;5031462;28;20530;-63
2023/09/10 02:30:05;;;;;;;9.80;8.97;;;14.80;99.90;;;;;;5031258;28;20498;-65
2023/09/10 02:32:34;;;;;;;9.77;8.70;;;14.80;99.90;;;;;;5031360;28;20577;-63
2023/09/10 02:35:01;;;;;;;9.97;9.07;;;14.80;99.90;;;;;;5031093;28;20489;-63
2023/09/10 02:37:27;;;;;;;10.00;8.63;;;14.70;99.90;;;;;;5031235;28;20445;-63
2023/09/10 02:39:54;;;;;;;9.07;8.23;;;14.70;99.90;;;;;;5031203;28;21117;-65
2023/09/10 02:42:21;;;;;;;9.30;8.50;;;14.70;99.90;;;;;;5031412;28;20444;-65
2023/09/10 02:44:48;;;;;;;9.00;8.20;;;14.70;99.90;;;;;;5030907;28;20450;-65
2023/09/10 02:47:15;;;;;;;9.70;8.90;;;14.60;99.90;;;;;;5031300;28;20461;-65
2023/09/10 02:49:43;;;;;;;10.23;9.43;;;14.60;99.90;;;;;;5031113;28;20467;-65
2023/09/10 02:52:09;;;;;;;10.20;9.20;;;14.60;99.90;;;;;;5031121;28;20494;-65
2023/09/10 02:54:37;;;;;;;9.40;8.50;;;14.50;99.90;;;;;;5030844;28;20997;-65
2023/09/10 02:57:04;;;;;;;10.13;9.23;;;14.50;99.90;;;;;;5031308;28;20454;-65
2023/09/10 02:59:30;;;;;;;11.30;10.20;;;14.50;99.90;;;;;;5030856;28;20450;-65
2023/09/10 03:01:57;;;;;;;10.87;9.97;;;14.40;99.90;;;;;;5031239;28;20439;-65
2023/09/10 03:04:24;;;;;;;9.97;8.80;;;14.40;99.90;;;;;;5030905;28;20455;-65
2023/09/10 03:06:52;;;;;;;11.30;10.10;;;14.40;99.90;;;;;;5031123;28;20441;-65
2023/09/10 03:09:19;;;;;;;9.60;8.80;;;14.40;99.90;;;;;;5031185;28;20452;-65
2023/09/10 03:11:47;;;;;;;9.83;9.03;;;14.40;99.90;;;;;;5030917;28;20487;-65
2023/09/10 03:14:15;;;;;;;9.90;8.90;;;14.40;99.90;;;;;;5031003;28;20448;-65
2023/09/10 03:16:43;;;;;;;9.00;8.30;;;14.40;99.90;;;;;;5030790;28;20446;-65
2023/09/10 03:19:10;;;;;;;9.23;8.53;;;14.30;99.90;;;;;;5030946;28;20450;-65
2023/09/10 03:21:38;;;;;;;9.30;8.40;;;14.30;99.90;;;;;;5030103;28;20837;-65
2023/09/10 03:24:07;;;;;;;10.47;9.57;;;14.30;99.90;;;;;;5031095;28;20483;-65
2023/09/10 03:26:34;;;;;;;11.10;10.00;;;14.30;99.90;;;;;;5030712;28;20454;-65
2023/09/10 03:29:00;;;;;;;10.00;9.10;;;14.30;99.90;;;;;;5031866;28;20446;-65
2023/09/10 03:31:28;;;;;;;8.63;7.93;;;14.30;99.90;;;;;;5034516;28;20572;-65
2023/09/10 03:33:55;;;;;;;11.70;9.20;;;14.30;99.90;;;;;;5034565;28;20524;-65
2023/09/10 03:36:22;;;;;;;9.13;8.23;;;14.20;99.90;;;;;;5034719;28;20524;-65
2023/09/10 03:38:49;;;;;;;9.57;8.60;;;14.20;99.90;;;;;;5034736;28;20920;-65
2023/09/10 03:41:17;;;;;;;8.80;7.90;;;14.20;99.90;;;;;;5034559;28;20461;-65
2023/09/10 03:43:44;;;;;;;9.60;8.53;;;14.20;99.90;;;;;;5034518;28;20443;-65
2023/09/10 03:46:11;;;;;;;9.67;8.77;;;14.20;99.90;;;;;;5034118;28;20457;-65
2023/09/10 03:48:37;;;;;;;10.33;9.30;;;14.20;99.90;;;;;;5034288;28;20803;-65
2023/09/10 03:51:04;;;;;;;10.17;9.23;;;14.20;99.90;;;;;;5034388;28;20468;-65
2023/09/10 03:53:31;;;;;;;10.40;9.50;;;14.20;99.90;;;;;;5034248;28;20531;-66
2023/09/10 03:55:58;;;;;;;9.87;9.07;;;14.10;99.90;;;;;;5034037;28;20446;-65
2023/09/10 03:58:26;;;;;;;10.23;9.13;;;14.10;99.90;;;;;;5034224;28;20460;-65
2023/09/10 04:00:53;;;;;;;10.10;9.13;;;14.10;99.90;;;;;;5034135;28;20474;-65
2023/09/10 04:03:20;;;;;;;9.57;8.80;;;14.10;99.90;;;;;;5034052;28;20532;-65
2023/09/10 04:05:47;;;;;;;10.07;8.90;;;14.10;99.90;;;;;;5033986;28;20453;-65
2023/09/10 04:08:14;;;;;;;9.73;8.97;;;14.10;99.90;;;;;;5034195;28;20461;-65
2023/09/10 04:10:41;;;;;;;9.03;8.37;;;14.00;99.90;;;;;;5033919;28;20476;-65
2023/09/10 04:13:08;;;;;;;8.90;8.20;;;14.00;99.90;;;;;;5033872;28;20858;-65
2023/09/10 04:15:36;;;;;;;9.93;9.07;;;14.00;99.90;;;;;;5033568;28;20550;-65
2023/09/10 04:18:05;;;;;;;10.67;9.70;;;14.00;99.90;;;;;;5034026;28;20451;-65
2023/09/10 04:20:31;;;;;;;11.40;10.43;;;13.90;99.90;;;;;;5033969;28;20918;-65
2023/09/10 04:22:58;;;;;;;11.20;10.27;;;13.90;99.90;;;;;;5033899;28;20446;-65
2023/09/10 04:25:25;;;;;;;9.27;8.50;;;13.90;99.90;;;;;;5033522;28;20437;-65
2023/09/10 04:27:52;;;;;;;11.47;10.50;;;13.90;99.90;;;;;;5033643;28;20528;-65
2023/09/10 04:30:19;;;;;;;12.00;10.93;;;13.90;99.90;;;;;;5033423;28;21017;-65
2023/09/10 04:32:47;;;;;;;11.27;10.23;;;13.90;99.90;;;;;;5033730;28;20481;-65
2023/09/10 04:35:14;;;;;;;11.00;10.03;;;13.90;99.90;;;;;;5033487;28;20985;-65
2023/09/10 04:37:41;;;;;;;11.83;10.93;;;13.80;99.90;;;;;;5033771;28;20446;-65
2023/09/10 04:40:09;;;;;;;10.20;9.20;;;13.80;99.90;;;;;;5033102;28;20523;-65
2023/09/10 04:42:36;;;;;;;11.43;10.20;;;13.80;99.90;;;;;;5033349;28;20446;-65
2023/09/10 04:45:03;;;;;;;10.20;9.30;;;13.80;99.90;;;;;;5032988;28;20464;-65
2023/09/10 04:47:30;;;;;;;9.47;8.70;;;13.80;99.90;;;;;;5033289;28;20449;-65
2023/09/10 04:49:58;;;;;;;10.50;9.60;;;13.70;99.90;;;;;;5033502;28;20465;-65
2023/09/10 04:52:25;;;;;;;11.10;10.10;;;13.70;99.90;;;;;;5033497;28;20489;-65
2023/09/10 04:54:52;;;;;;;11.30;10.20;;;13.70;99.90;;;;;;5032853;28;20456;-65
2023/09/10 04:57:19;;;;;;;11.10;10.10;;;13.70;99.90;;;;;;5033079;28;20473;-65
2023/09/10 04:59:46;;;;;;;11.40;10.30;;;13.70;99.90;;;;;;5032822;28;20572;-65
2023/09/10 05:02:13;;;;;;;9.10;8.40;;;13.70;99.90;;;;;;5033211;28;20442;-65
2023/09/10 05:04:39;;;;;;;27.23;11.23;;;13.70;99.90;;;;;;5032795;28;20441;-65
2023/09/10 05:07:08;;;;;;;9.63;8.73;;;13.70;99.90;;;;;;5033123;28;20874;-65
2023/09/10 05:09:35;;;;;;;9.30;8.67;;;13.70;99.90;;;;;;5032921;28;21006;-65
2023/09/10 05:12:02;;;;;;;10.00;9.10;;;13.70;99.90;;;;;;5032752;28;20491;-65
2023/09/10 05:14:28;;;;;;;10.33;9.40;;;13.70;99.90;;;;;;5032812;28;20536;-65
2023/09/10 05:16:55;;;;;;;10.57;9.77;;;13.60;99.90;;;;;;5032750;28;20445;-64
2023/09/10 05:19:24;;;;;;;10.53;9.53;;;13.60;99.90;;;;;;5032810;28;20452;-65
2023/09/10 05:21:51;;;;;;;10.80;9.70;;;13.60;99.90;;;;;;5032764;28;20481;-65
2023/09/10 05:24:19;;;;;;;11.73;10.83;;;13.70;99.90;;;;;;5032526;28;20452;-65
2023/09/10 05:26:46;;;;;;;11.77;10.27;;;13.60;99.90;;;;;;5032274;28;20452;-65
2023/09/10 05:29:13;;;;;;;9.13;8.37;;;13.70;99.90;;;;;;5032491;28;20543;-65
2023/09/10 05:31:40;;;;;;;9.60;8.60;;;13.70;99.90;;;;;;5032538;28;20467;-65
2023/09/10 05:34:06;;;;;;;10.07;9.27;;;13.70;99.90;;;;;;5032304;28;20449;-65
2023/09/10 05:36:34;;;;;;;10.77;9.67;;;13.70;99.90;;;;;;5032130;28;20447;-65
2023/09/10 05:39:01;;;;;;;10.10;8.90;;;13.70;99.90;;;;;;5032223;28;20453;-65
2023/09/10 05:41:29;;;;;;;10.63;9.83;;;13.70;99.90;;;;;;5032387;28;20539;-65
2023/09/10 05:43:56;;;;;;;9.53;8.70;;;13.70;99.90;;;;;;5032424;28;20449;-65
2023/09/10 05:46:23;;;;;;;10.80;9.90;;;13.70;99.90;;;;;;5031827;28;20442;-65
2023/09/10 05:48:50;;;;;;;9.80;9.00;;;13.70;99.90;;;;;;5032185;28;20446;-65
2023/09/10 05:51:16;;;;;;;10.40;9.50;;;13.70;99.90;;;;;;5031559;28;20469;-65
2023/09/10 05:53:44;;;;;;;9.33;8.63;;;13.70;99.90;;;;;;5031733;28;20521;-65
2023/09/10 05:56:11;;;;;;;9.47;8.57;;;13.70;99.90;;;;;;5031878;28;20488;-65
2023/09/10 05:58:39;;;;;;;9.97;9.03;;;13.80;99.90;;;;;;5032054;28;20446;-65
2023/09/10 06:01:06;;;;;;;10.63;9.73;;;13.80;99.90;;;;;;5031746;28;20564;-65
2023/09/10 06:03:33;;;;;;;10.27;9.47;;;13.80;99.90;;;;;;5031984;28;20477;-65
2023/09/10 06:06:01;;;;;;;10.27;9.17;;;13.90;99.90;;;;;;5031570;28;20950;-65
2023/09/10 06:08:29;;;;;;;10.90;9.80;;;13.90;99.90;;;;;;5031993;28;20796;-65
2023/09/10 06:10:56;;;;;;;10.30;9.30;;;14.00;99.90;;;;;;5031666;28;21001;-65
2023/09/10 06:13:22;;;;;;;9.47;8.60;;;14.00;99.90;;;;;;5031826;28;20508;-65
2023/09/10 06:15:51;;;;;;;11.77;10.67;;;14.00;99.90;;;;;;5031465;28;21030;-65
2023/09/10 06:18:18;;;;;;;9.73;8.83;;;14.10;99.90;;;;;;5031871;28;20520;-64
2023/09/10 06:20:44;;;;;;;9.77;9.07;;;14.10;99.90;;;;;;5031435;28;21000;-65
2023/09/10 06:23:11;;;;;;;9.97;8.93;;;14.20;99.90;;;;;;5031732;28;20446;-65
2023/09/10 06:25:38;;;;;;;10.30;9.43;;;14.20;99.90;;;;;;5031146;28;20453;-65
2023/09/10 06:28:06;;;;;;;9.77;8.97;;;14.20;99.90;;;;;;5031655;28;20447;-65
2023/09/10 06:30:32;;;;;;;9.70;8.80;;;14.20;99.90;;;;;;5031441;28;20471;-67
2023/09/10 06:33:00;;;;;;;10.77;9.87;;;14.30;99.90;;;;;;5031444;28;20487;-65
2023/09/10 06:35:27;;;;;;;10.40;9.47;;;14.30;99.90;;;;;;5031004;28;20441;-65
2023/09/10 06:37:54;;;;;;;11.67;10.57;;;14.40;99.90;;;;;;5031370;28;20540;-65
2023/09/10 06:40:21;;;;;;;9.73;9.03;;;14.40;99.90;;;;;;5031389;28;20468;-65
2023/09/10 06:42:48;;;;;;;10.77;9.67;;;14.50;99.90;;;;;;5031342;28;20449;-66
2023/09/10 06:45:15;;;;;;;10.50;9.60;;;14.50;99.90;;;;;;5031038;28;20446;-65
2023/09/10 06:47:42;;;;;;;8.97;8.27;;;14.70;99.90;;;;;;5031198;28;20443;-65
2023/09/10 06:50:10;;;;;;;10.13;9.27;;;14.80;99.90;;;;;;5031091;28;20476;-65
2023/09/10 06:52:37;;;;;;;10.07;9.17;;;15.00;99.90;;;;;;5031275;28;20490;-65
2023/09/10 06:55:04;;;;;;;11.50;10.47;;;15.10;99.90;;;;;;5030936;28;20454;-66
2023/09/10 06:57:32;;;;;;;10.63;9.73;;;15.40;99.90;;;;;;5031238;28;20818;-65
2023/09/10 06:59:59;;;;;;;9.87;9.07;;;15.60;99.90;;;;;;5030950;28;20489;-65
2023/09/10 07:02:26;;;;;;;10.00;9.20;;;15.80;99.90;;;;;;5031006;28;20530;-65
2023/09/10 07:04:53;;;;;;;9.47;8.50;;;16.00;99.90;;;;;;5035076;28;20455;-65
2023/09/10 07:07:21;;;;;;;10.97;9.97;;;16.20;99.90;;;;;;5035332;28;20895;-66
2023/09/10 07:09:47;;;;;;;11.20;10.30;;;16.40;99.90;;;;;;5034911;28;20468;-66
2023/09/10 07:12:14;;;;;;;10.13;8.90;;;16.60;99.90;;;;;;5035074;28;20471;-65
2023/09/10 07:14:42;;;;;;;10.73;9.80;;;16.80;99.90;;;;;;5034692;28;20941;-65
2023/09/10 07:17:09;;;;;;;10.23;9.47;;;17.00;99.90;;;;;;5035197;28;20459;-66
2023/09/10 07:19:36;;;;;;;10.23;9.40;;;17.20;99.90;;;;;;5041736;22;20503;-65
2023/09/10 07:22:03;;;;;;;11.00;10.00;;;17.30;99.90;;;;;;5015146;28;20449;-65
2023/09/10 07:24:31;;;;;;;11.17;10.20;;;17.50;99.90;;;;;;5015066;28;20426;-65
2023/09/10 07:26:58;;;;;;;10.73;9.73;;;17.70;99.90;;;;;;5015160;28;20829;-65
2023/09/10 07:29:25;;;;;;;10.07;9.17;;;17.80;99.90;;;;;;5014912;28;20472;-65
2023/09/10 07:31:52;;;;;;;10.37;9.47;;;18.00;99.90;;;;;;5015057;28;20448;-65
2023/09/10 07:34:21;;;;;;;9.53;8.73;;;18.20;99.90;;;;;;5014675;28;20492;-65
2023/09/10 07:36:48;;;;;;;10.30;9.47;;;18.30;99.90;;;;;;5014555;28;20960;-65
2023/09/10 07:39:15;;;;;;;9.13;8.43;;;18.50;99.90;;;;;;5014878;28;20468;-65
2023/09/10 07:41:43;;;;;;;10.47;9.53;;;18.60;99.90;;;;;;5014731;28;20450;-65
2023/09/10 07:44:10;;;;;;;10.93;10.03;;;18.70;99.90;;;;;;5014756;28;20446;-65
2023/09/10 07:46:37;;;;;;;9.70;8.90;;;18.90;99.90;;;;;;5014429;28;20986;-65
2023/09/10 07:49:04;;;;;;;9.90;9.17;;;19.00;99.90;;;;;;5014592;28;20468;-65
2023/09/10 07:51:30;;;;;;;10.27;9.37;;;19.20;99.90;;;;;;5014785;28;20453;-65
2023/09/10 07:53:57;;;;;;;10.27;9.47;;;19.30;99.90;;;;;;5014400;28;20491;-65
2023/09/10 07:56:24;;;;;;;11.17;10.17;;;19.40;99.90;;;;;;5014367;28;20469;-65
2023/09/10 07:58:52;;;;;;;10.80;10.00;;;19.50;99.90;;;;;;5014443;28;20469;-65
2023/09/10 08:01:19;;;;;;;10.17;9.30;;;19.70;99.90;;;;;;5014397;28;21074;-65
2023/09/10 08:03:46;;;;;;;10.53;9.63;;;19.80;99.90;;;;;;5014170;28;20458;-65
2023/09/10 08:06:13;;;;;;;10.47;9.37;;;19.90;99.90;;;;;;5014043;28;20450;-65
2023/09/10 08:08:40;;;;;;;12.73;11.63;;;20.00;99.90;;;;;;5014209;28;20528;-65
2023/09/10 08:11:07;;;;;;;8.97;8.37;;;20.10;99.90;;;;;;5014353;28;20486;-65
2023/09/10 08:13:33;;;;;;;11.53;10.43;;;20.20;99.90;;;;;;5014058;28;20478;-65
2023/09/10 08:16:02;;;;;;;10.77;9.77;;;20.30;99.90;;;;;;5013126;28;20449;-65
2023/09/10 08:18:28;;;;;;;9.97;9.10;;;20.40;99.90;;;;;;5014092;28;20473;-65
2023/09/10 08:20:55;;;;;;;10.13;9.43;;;20.50;99.90;;;;;;5014329;28;20527;-65
2023/09/10 08:23:22;;;;;;;10.83;9.93;;;20.60;99.90;;;;;;5013960;28;20447;-65
2023/09/10 08:25:52;;;;;;;10.00;9.30;;;20.70;99.90;;;;;;5013686;28;20491;-65
2023/09/10 08:28:19;;;;;;;11.00;10.10;;;20.80;99.90;;;;;;5013935;28;20467;-65
2023/09/10 08:30:45;;;;;;;10.37;9.37;;;20.90;99.90;;;;;;5013760;28;20919;-65
2023/09/10 08:33:13;;;;;;;10.20;9.40;;;21.00;99.90;;;;;;5013786;28;20517;-65
2023/09/10 08:35:46;;;;;;;10.90;9.97;;;21.10;99.90;;;;;;5013643;28;20453;-65
2023/09/10 08:38:13;;;;;;;10.10;9.40;;;21.20;99.90;;;;;;5013756;28;20554;-65
2023/09/10 08:40:46;;;;;;;9.77;8.93;;;21.30;99.90;;;;;;5011876;28;20919;-65
2023/09/10 08:43:19;;;;;;;11.57;10.40;;;21.40;99.90;;;;;;5013139;28;20969;-65
2023/09/10 08:45:45;;;;;;;11.80;10.67;;;21.50;99.90;;;;;;5012674;28;20535;-65
2023/09/10 08:48:16;;;;;;;11.30;10.30;;;21.60;99.90;;;;;;5013196;28;20586;-65
2023/09/10 08:50:43;;;;;;;10.30;9.30;;;21.70;99.90;;;;;;5013002;28;20539;-65
2023/09/10 08:53:13;;;;;;;10.17;9.37;;;21.80;99.90;;;;;;5013163;28;20851;-65
2023/09/10 08:55:41;;;;;;;9.63;8.83;;;21.90;99.90;;;;;;5012680;28;20453;-65
2023/09/10 08:58:10;;;;;;;10.30;9.50;;;22.00;99.90;;;;;;5013258;28;20474;-65
2023/09/10 09:00:39;;;;;;;9.83;9.03;;;22.10;99.90;;;;;;5013017;28;20528;-65
2023/09/10 09:03:06;;;;;;;10.47;9.67;;;22.20;99.90;;;;;;5013070;28;20839;-65
2023/09/10 09:05:36;;;;;;;10.97;10.17;;;22.30;99.90;;;;;;5012701;28;20453;-65
2023/09/10 09:08:09;;;;;;;10.63;9.80;;;22.40;99.90;;;;;;5012719;28;20458;-65
2023/09/10 09:10:37;;;;;;;11.70;10.50;;;22.50;99.90;;;;;;5012616;28;20463;-65
2023/09/10 09:13:08;;;;;;;11.47;10.57;;;22.60;99.90;;;;;;5012959;28;20492;-65
2023/09/10 09:15:38;;;;;;;11.03;10.13;;;22.70;99.90;;;;;;5012629;28;20859;-65
2023/09/10 09:18:07;;;;;;;11.13;10.17;;;22.80;99.90;;;;;;5012707;28;20484;-65
2023/09/10 09:20:37;;;;;;;10.37;9.50;;;22.90;99.90;;;;;;5012580;28;20530;-65
2023/09/10 09:23:10;;;;;;;10.10;9.20;;;23.10;99.90;;;;;;5012803;28;20454;-65
2023/09/10 09:25:37;;;;;;;10.90;10.00;;;23.20;99.90;;;;;;5012106;28;20533;-65
2023/09/10 09:28:05;;;;;;;10.20;9.50;;;23.40;99.90;;;;;;5011742;28;20468;-65
2023/09/10 09:30:32;;;;;;;10.17;9.17;;;23.40;99.90;;;;;;5012247;28;20477;-65
2023/09/10 09:32:59;;;;;;;9.67;8.83;;;23.50;99.90;;;;;;5012261;28;20853;-65
2023/09/10 09:35:26;;;;;;;10.27;9.43;;;23.60;99.90;;;;;;5011964;28;20566;-65
2023/09/10 09:37:54;;;;;;;9.50;8.80;;;23.70;99.90;;;;;;5012399;28;20488;-65
2023/09/10 09:40:21;;;;;;;10.07;9.33;;;23.70;99.90;;;;;;5012137;28;20533;-64
2023/09/10 09:42:49;;;;;;;8.60;7.90;;;23.80;99.90;;;;;;5012244;28;20806;-65
2023/09/10 09:45:16;;;;;;;9.73;9.03;;;24.00;99.90;;;;;;5011843;28;21000;-65
2023/09/10 09:47:47;;;;;;;9.50;8.80;;;24.10;99.90;;;;;;5011992;28;20447;-65
2023/09/10 09:50:14;;;;;;;8.47;7.93;;;24.30;99.90;;;;;;5011961;28;20450;-66
2023/09/10 09:52:41;;;;;;;9.47;8.63;;;24.30;99.90;;;;;;5011931;28;20964;-65
2023/09/10 09:55:10;;;;;;;9.93;9.23;;;24.50;99.90;;;;;;5009618;28;20939;-65
2023/09/10 09:57:37;;;;;;;9.00;8.40;;;24.60;99.90;;;;;;5011713;28;20454;-65
2023/09/10 10:00:10;;;;;;;8.77;8.10;;;24.70;99.90;;;;;;5011716;28;20536;-65
2023/09/10 10:02:37;;;;;;;9.63;8.83;;;24.80;99.90;;;;;;5011696;28;20530;-65
2023/09/10 10:05:05;;;;;;;9.00;8.30;;;24.90;99.90;;;;;;5011435;28;20440;-66
2023/09/10 10:07:34;;;;;;;11.57;9.73;;;25.00;99.90;;;;;;5011491;28;20886;-65
2023/09/10 10:10:01;;;;;;;9.10;8.40;;;25.10;99.90;;;;;;5010532;28;20469;-66
2023/09/10 10:12:29;;;;;;;9.30;8.50;;;25.20;99.90;;;;;;5010388;28;20448;-66
2023/09/10 10:14:57;;;;;;;8.70;8.10;;;25.30;99.90;;;;;;4995135;28;20478;-66
2023/09/10 10:17:25;;;;;;;9.07;8.27;;;25.40;99.90;;;;;;5011125;28;20439;-66
2023/09/10 10:19:53;;;;;;;9.13;8.50;;;25.50;99.90;;;;;;5010841;28;20472;-65
2023/09/10 10:22:20;;;;;;;8.10;7.50;;;25.60;99.90;;;;;;5011080;28;20747;-66
2023/09/10 10:24:47;;;;;;;7.77;7.20;;;25.70;99.90;;;;;;5010876;28;20897;-66
2023/09/10 10:27:15;;;;;;;7.67;7.07;;;25.80;99.90;;;;;;5011180;28;20451;-66
2023/09/10 10:29:43;;;;;;;8.30;7.63;;;25.90;99.90;;;;;;5010773;28;20468;-65
2023/09/10 10:32:18;;;;;;;8.80;8.10;;;25.90;99.90;;;;;;5010686;28;20473;-66
2023/09/10 10:34:53;;;;;;;9.40;8.63;;;26.00;99.90;;;;;;5010918;28;20587;-66
2023/09/10 10:37:24;;;;;;;8.47;7.80;;;26.10;99.90;;;;;;5010999;28;20535;-66
2023/09/10 10:39:55;;;;;;;9.10;8.30;;;26.20;99.90;;;;;;5010930;28;20473;-66
2023/09/10 10:42:37;;;;;;;8.73;8.03;;;26.30;99.70;;;;;;5010881;28;20445;-66
2023/09/10 10:45:07;;;;;;;9.10;8.40;;;26.40;99.60;;;;;;4996171;28;21043;-66
2023/09/10 10:47:39;;;;;;;9.03;8.17;;;26.50;99.50;;;;;;5011195;28;20461;-66
2023/09/10 10:50:10;;;;;;;9.20;8.47;;;26.60;99.40;;;;;;5010773;28;20443;-65
2023/09/10 10:52:44;;;;;;;8.93;8.40;;;26.60;98.60;;;;;;5010481;28;20444;-66
2023/09/10 10:55:13;;;;;;;11.00;8.87;;;26.80;99.00;;;;;;5010735;28;20532;-66
2023/09/10 10:57:40;;;;;;;9.23;8.47;;;26.80;97.70;;;;;;5010771;28;20479;-65
2023/09/10 11:00:10;;;;;;;8.93;8.13;;;27.00;97.70;;;;;;5010740;28;20481;-65
2023/09/10 11:02:37;;;;;;;9.27;8.57;;;27.10;97.10;;;;;;5010564;28;20451;-66
2023/09/10 11:05:06;;;;;;;8.77;8.07;;;27.30;97.50;;;;;;5010631;28;20455;-66
2023/09/10 11:07:34;;;;;;;8.17;7.57;;;27.40;96.80;;;;;;5010715;28;20446;-66
2023/09/10 11:10:23;;;;;;;7.30;6.83;;;27.50;97.10;;;;;;5010556;28;20490;-66
2023/09/10 11:13:05;;;;;;;9.67;8.57;;;27.60;97.00;;;;;;5009812;28;20449;-66
2023/09/10 11:15:33;;;;;;;9.23;8.53;;;27.70;96.80;;;;;;5009654;28;20483;-66
2023/09/10 11:18:33;;;;;;;8.37;7.67;;;27.80;95.90;;;;;;5010272;28;20477;-65
2023/09/10 11:21:01;;;;;;;9.07;8.17;;;28.00;95.00;;;;;;4995442;28;20795;-66
2023/09/10 11:23:28;;;;;;;8.90;8.20;;;28.10;94.10;;;;;;5010503;28;20994;-66
2023/09/10 11:26:31;;;;;;;7.63;7.03;;;28.20;94.00;;;;;;5010227;28;20439;-66
2023/09/10 11:28:59;;;;;;;8.50;7.80;;;28.40;94.80;;;;;;4995048;28;20461;-66
2023/09/10 11:31:42;;;;;;;8.63;8.03;;;28.50;94.40;;;;;;5010560;28;20529;-66
2023/09/10 11:34:40;;;;;;;9.27;8.17;;;28.60;93.70;;;;;;5008463;28;20507;-66
2023/09/10 11:37:08;;;;;;;8.60;7.93;;;28.70;93.20;;;;;;4996126;28;21015;-66
2023/09/10 11:39:37;;;;;;;6.97;6.57;;;28.70;91.30;;;;;;5010181;28;20497;-66
2023/09/10 11:42:08;;;;;;;8.07;7.37;;;28.80;91.70;;;;;;5010578;28;20826;-66
2023/09/10 11:44:36;;;;;;;8.83;8.17;;;28.90;91.80;;;;;;5009944;28;21112;-66
2023/09/10 11:47:04;;;;;;;8.77;7.70;;;28.90;91.70;;;;;;5010617;28;20461;-66
2023/09/10 11:49:31;;;;;;;13.37;9.20;;;29.00;91.50;;;;;;5010813;28;20866;-66
2023/09/10 11:51:58;;;;;;;8.47;7.77;;;29.10;91.10;;;;;;5014227;28;20453;-66
2023/09/10 11:54:26;;;;;;;8.80;8.00;;;29.10;91.70;;;;;;5013786;28;20564;-66
2023/09/10 11:56:56;;;;;;;8.40;7.80;;;29.20;91.80;;;;;;4997553;28;20453;-66
2023/09/10 11:59:26;;;;;;;9.97;8.40;;;29.20;90.70;;;;;;5013742;28;20458;-66
2023/09/10 12:01:54;;;;;;;8.17;7.50;;;29.30;90.80;;;;;;5013963;28;20450;-66
2023/09/10 12:04:27;;;;;;;7.50;6.90;;;29.40;89.40;;;;;;5013826;28;20446;-65
2023/09/10 12:06:54;;;;;;;8.07;7.27;;;29.50;86.60;;;;;;4997592;28;20442;-66
2023/09/10 12:09:21;;;;;;;8.40;7.60;;;29.60;86.20;;;;;;5013582;28;20462;-66
2023/09/10 12:11:50;;;;;;;7.90;7.20;;;29.70;83.80;;;;;;5013557;28;20818;-66
2023/09/10 12:14:18;;;;;;;7.63;7.13;;;29.90;83.30;;;;;;5013576;28;20509;-66
2023/09/10 12:16:45;;;;;;;7.73;7.13;;;30.00;85.30;;;;;;5013177;28;20442;-66
2023/09/10 12:19:12;;;;;;;7.23;6.83;;;30.10;82.20;;;;;;5013237;28;20552;-66
2023/09/10 12:21:43;;;;;;;7.23;6.73;;;30.20;82.70;;;;;;5013469;28;20521;-66
2023/09/10 12:24:10;;;;;;;8.23;7.53;;;30.40;80.90;;;;;;5013280;28;20452;-66
2023/09/10 12:26:37;;;;;;;8.10;7.50;;;30.50;78.90;;;;;;5013126;28;20824;-66
2023/09/10 12:29:04;;;;;;;7.53;6.90;;;30.70;79.50;;;;;;5013331;28;20467;-66
2023/09/10 12:31:31;;;;;;;7.57;6.90;;;30.90;79.50;;;;;;5013193;28;20533;-66
2023/09/10 12:33:58;;;;;;;6.90;6.40;;;30.90;78.00;;;;;;5012950;28;20888;-66
2023/09/10 12:36:25;;;;;;;8.07;7.37;;;31.10;76.70;;;;;;5012764;28;20459;-66
2023/09/10 12:38:53;;;;;;;7.83;7.23;;;31.20;78.30;;;;;;5013152;28;20466;-66
2023/09/10 12:41:20;;;;;;;7.20;6.60;;;31.30;73.80;;;;;;5012928;28;20942;-66
2023/09/10 12:43:47;;;;;;;8.50;7.50;;;31.60;75.80;;;;;;5013201;28;20451;-65
2023/09/10 12:46:15;;;;;;;8.63;7.93;;;31.80;73.50;;;;;;5012645;28;20451;-66